createdAt,value
2019-06-01T00:01:32.211Z,99356.80
2019-06-01T00:04:02.991Z,99352.63
2019-06-01T00:06:33.688Z,99357.45
2019-06-01T00:09:06.998Z,99361.75
2019-06-01T00:11:39.112Z,99353.47
2019-06-01T00:14:11.612Z,99359.38
2019-06-01T00:16:42.344Z,99359.35
2019-06-01T00:19:14.503Z,99357.11
2019-06-01T00:21:45.491Z,99347.17
2019-06-01T00:24:16.715Z,99352.45
2019-06-01T00:26:47.891Z,99345.16
2019-06-01T00:29:18.917Z,99351.64
2019-06-01T00:31:49.943Z,99340.84
2019-06-01T00:34:21.170Z,99342.50
2019-06-01T00:36:52.086Z,99337.77
2019-06-01T00:39:22.789Z,99346.22
2019-06-01T00:41:53.507Z,99341.29
2019-06-01T00:44:24.227Z,99334.89
2019-06-01T00:46:55.284Z,99333.88
2019-06-01T00:49:25.977Z,99336.69
2019-06-01T00:51:56.718Z,99326.90
2019-06-01T00:54:27.420Z,99328.70
2019-06-01T00:56:58.578Z,99330.01
2019-06-01T00:59:29.483Z,99321.97
2019-06-01T01:02:00.461Z,99323.91
2019-06-01T01:04:31.455Z,99322.42
2019-06-01T01:07:03.365Z,99323.38
2019-06-01T01:09:34.149Z,99323.25
2019-06-01T01:12:05.009Z,99326.78
2019-06-01T01:14:35.750Z,99319.16
2019-06-01T01:17:06.665Z,99322.65
2019-06-01T01:19:37.584Z,99325.27
2019-06-01T01:22:08.318Z,99325.75
2019-06-01T01:24:39.001Z,99326.72
2019-06-01T01:27:10.400Z,99327.20
2019-06-01T01:29:41.399Z,99330.50
2019-06-01T01:32:12.071Z,99325.19
2019-06-01T01:34:42.802Z,99324.84
2019-06-01T01:37:13.583Z,99325.68
2019-06-01T01:39:48.031Z,99323.72
2019-06-01T01:42:19.110Z,99324.55
2019-06-01T01:44:50.507Z,99319.24
2019-06-01T01:47:21.459Z,99325.19
2019-06-01T01:49:52.190Z,99315.20
2019-06-01T01:52:22.922Z,99318.29
2019-06-01T01:54:54.727Z,99310.66
2019-06-01T01:57:25.566Z,99324.88
2019-06-01T01:59:57.368Z,99319.30
2019-06-01T02:02:28.410Z,99322.50
2019-06-01T02:04:59.923Z,99319.61
2019-06-01T02:07:30.902Z,99320.03
2019-06-01T02:10:01.913Z,99322.21
2019-06-01T02:12:33.055Z,99321.36
2019-06-01T02:15:04.355Z,99317.23
2019-06-01T02:17:35.096Z,99309.71
2019-06-01T02:20:05.997Z,99320.09
2019-06-01T02:22:37.106Z,99312.13
2019-06-01T02:25:08.397Z,99309.28
2019-06-01T02:27:39.360Z,99311.09
2019-06-01T02:30:10.919Z,99313.07
2019-06-01T02:32:41.726Z,99310.25
2019-06-01T02:35:12.716Z,99311.28
2019-06-01T02:37:43.390Z,99306.81
2019-06-01T02:40:15.047Z,99305.20
2019-06-01T02:42:46.220Z,99308.50
2019-06-01T02:45:17.437Z,99305.09
2019-06-01T02:47:48.132Z,99306.98
2019-06-01T02:50:19.042Z,99312.64
2019-06-01T02:52:50.179Z,99309.86
2019-06-01T02:55:21.162Z,99309.06
2019-06-01T02:57:51.822Z,99306.81
2019-06-01T03:01:07.545Z,99305.92
2019-06-01T03:03:38.927Z,99310.48
2019-06-01T03:06:12.615Z,99310.50
2019-06-01T03:08:47.382Z,99308.89
2019-06-01T03:11:21.994Z,99314.39
2019-06-01T03:13:58.258Z,99315.07
2019-06-01T03:16:31.492Z,99311.12
2019-06-01T03:19:03.791Z,99316.33
2019-06-01T03:21:35.197Z,99316.91
2019-06-01T03:24:08.918Z,99315.41
2019-06-01T03:26:42.953Z,99319.06
2019-06-01T03:29:16.371Z,99313.70
2019-06-01T03:31:47.288Z,99314.96
2019-06-01T03:34:18.059Z,99317.78
2019-06-01T03:36:48.989Z,99317.56
2019-06-01T03:39:19.956Z,99312.53
2019-06-01T03:41:51.460Z,99310.55
2019-06-01T03:44:22.182Z,99313.23
2019-06-01T03:46:53.005Z,99309.73
2019-06-01T03:49:24.138Z,99305.56
2019-06-01T03:51:55.224Z,99307.98
2019-06-01T03:54:25.920Z,99305.80
2019-06-01T03:56:56.652Z,99309.75
2019-06-01T03:59:27.448Z,99305.63
2019-06-01T04:01:58.173Z,99307.85
2019-06-01T04:04:30.180Z,99303.02
2019-06-01T04:07:01.241Z,99305.95
2019-06-01T04:09:32.029Z,99309.55
2019-06-01T04:12:03.530Z,99308.23
2019-06-01T04:14:34.301Z,99307.73
2019-06-01T04:17:06.147Z,99307.99
2019-06-01T04:19:37.025Z,99305.79
2019-06-01T04:22:10.789Z,99303.48
2019-06-01T04:24:42.551Z,99310.56
2019-06-01T04:27:13.428Z,99307.52
2019-06-01T04:29:44.144Z,99302.19
2019-06-01T04:32:17.370Z,99307.37
2019-06-01T04:34:48.082Z,99304.40
2019-06-01T04:37:19.013Z,99302.05
2019-06-01T04:39:49.711Z,99303.95
2019-06-01T04:42:20.484Z,99295.92
2019-06-01T04:44:51.166Z,99294.51
2019-06-01T04:47:23.044Z,99291.30
2019-06-01T04:49:54.219Z,99292.31
2019-06-01T04:52:25.375Z,99297.23
2019-06-01T04:54:56.420Z,99295.50
2019-06-01T04:57:27.167Z,99292.03
2019-06-01T04:59:57.862Z,99300.45
2019-06-01T05:02:28.587Z,99294.64
2019-06-01T05:04:59.282Z,99296.23
2019-06-01T05:07:29.993Z,99294.08
2019-06-01T05:10:00.687Z,99301.73
2019-06-01T05:12:31.419Z,99296.84
2019-06-01T05:15:02.330Z,99306.64
2019-06-01T05:17:33.106Z,99305.81
2019-06-01T05:20:03.945Z,99312.91
2019-06-01T05:22:34.799Z,99303.58
2019-06-01T05:25:06.802Z,99305.07
2019-06-01T05:27:37.878Z,99307.59
2019-06-01T05:30:11.453Z,99305.37
2019-06-01T05:32:42.309Z,99301.13
2019-06-01T05:35:13.801Z,99303.68
2019-06-01T05:37:44.807Z,99287.66
2019-06-01T05:40:16.750Z,99287.66
2019-06-01T05:42:47.424Z,99303.91
2019-06-01T05:45:19.490Z,99305.83
2019-06-01T05:47:51.259Z,99301.23
2019-06-01T05:50:22.704Z,99301.89
2019-06-01T05:52:53.568Z,99297.44
2019-06-01T05:55:24.493Z,99304.20
2019-06-01T05:57:55.208Z,99303.48
2019-06-01T06:00:42.259Z,99300.91
2019-06-01T06:03:16.106Z,99311.49
2019-06-01T06:05:46.634Z,99305.58
2019-06-01T06:08:17.999Z,99303.11
2019-06-01T06:10:49.049Z,99307.04
2019-06-01T06:13:19.815Z,99308.37
2019-06-01T06:15:50.868Z,99309.41
2019-06-01T06:18:22.005Z,99308.30
2019-06-01T06:20:52.911Z,99310.14
2019-06-01T06:23:23.629Z,99307.91
2019-06-01T06:25:54.337Z,99310.48
2019-06-01T06:28:26.723Z,99312.86
2019-06-01T06:30:59.747Z,99314.56
2019-06-01T06:33:30.669Z,99313.27
2019-06-01T06:36:01.379Z,99319.14
2019-06-01T06:38:33.172Z,99321.32
2019-06-01T06:41:03.879Z,99318.27
2019-06-01T06:43:34.655Z,99321.57
2019-06-01T06:46:05.500Z,99328.02
2019-06-01T06:48:36.237Z,99333.21
2019-06-01T06:51:07.039Z,99327.28
2019-06-01T06:53:37.829Z,99331.48
2019-06-01T06:56:08.669Z,99320.09
2019-06-01T06:58:39.474Z,99320.09
2019-06-01T07:01:12.138Z,99323.02
2019-06-01T07:03:42.671Z,99318.72
2019-06-01T07:06:13.402Z,99321.17
2019-06-01T07:08:44.251Z,99324.36
2019-06-01T07:11:15.133Z,99307.83
2019-06-01T07:13:45.892Z,99316.83
2019-06-01T07:16:16.781Z,99310.99
2019-06-01T07:18:47.506Z,99310.99
2019-06-01T07:21:19.472Z,99310.09
2019-06-01T07:23:50.296Z,99320.02
2019-06-01T07:26:21.915Z,99316.81
2019-06-01T07:28:52.676Z,99321.02
2019-06-01T07:31:24.270Z,99313.75
2019-06-01T07:33:55.142Z,99316.05
2019-06-01T07:36:26.693Z,99319.22
2019-06-01T07:38:58.772Z,99318.78
2019-06-01T07:41:29.616Z,99313.23
2019-06-01T07:44:00.604Z,99312.10
2019-06-01T07:46:31.302Z,99317.72
2019-06-01T07:49:02.086Z,99313.84
2019-06-01T07:51:34.435Z,99314.67
2019-06-01T07:54:05.235Z,99319.06
2019-06-01T07:56:35.960Z,99308.88
2019-06-01T07:59:07.716Z,99315.39
2019-06-01T08:01:38.758Z,99314.23
2019-06-01T08:04:09.503Z,99318.58
2019-06-01T08:06:45.960Z,99311.17
2019-06-01T08:09:13.739Z,99312.94
2019-06-01T08:11:44.460Z,99319.59
2019-06-01T08:14:15.482Z,99313.16
2019-06-01T08:16:46.297Z,99310.01
2019-06-01T08:19:17.062Z,99310.01
2019-06-01T08:21:48.109Z,99308.58
2019-06-01T08:24:18.889Z,99299.38
2019-06-01T08:26:50.745Z,99313.47
2019-06-01T08:29:22.623Z,99314.42
2019-06-01T08:31:55.754Z,99306.03
2019-06-01T08:34:26.913Z,99309.20
2019-06-01T08:36:57.660Z,99302.05
2019-06-01T08:39:29.443Z,99303.78
2019-06-01T08:42:00.451Z,99298.19
2019-06-01T08:44:31.704Z,99289.41
2019-06-01T08:47:02.809Z,99289.20
2019-06-01T08:49:34.525Z,99280.34
2019-06-01T08:52:05.553Z,99274.86
2019-06-01T08:54:36.281Z,99272.64
2019-06-01T08:57:07.020Z,99278.73
2019-06-01T08:59:37.744Z,99281.65
2019-06-01T09:02:08.990Z,99281.81
2019-06-01T09:04:40.001Z,99280.07
2019-06-01T09:07:10.680Z,99275.73
2019-06-01T09:09:41.430Z,99272.22
2019-06-01T09:12:12.471Z,99268.59
2019-06-01T09:14:43.180Z,99267.06
2019-06-01T09:17:18.299Z,99267.23
2019-06-01T09:19:46.310Z,99271.23
2019-06-01T09:22:17.215Z,99265.58
2019-06-01T09:24:47.935Z,99269.98
2019-06-01T09:27:18.673Z,99271.95
2019-06-01T09:29:49.488Z,99268.59
2019-06-01T09:32:20.307Z,99268.72
2019-06-01T09:34:51.069Z,99273.80
2019-06-01T09:37:21.759Z,99262.68
2019-06-01T09:39:52.650Z,99265.72
2019-06-01T09:42:23.489Z,99261.41
2019-06-01T09:44:54.281Z,99262.28
2019-06-01T09:47:24.988Z,99260.35
2019-06-01T09:49:55.725Z,99257.20
2019-06-01T09:52:27.411Z,99256.75
2019-06-01T09:54:58.769Z,99260.04
2019-06-01T09:57:29.828Z,99253.58
2019-06-01T10:00:00.993Z,99253.56
2019-06-01T10:02:32.250Z,99254.22
2019-06-01T10:05:03.239Z,99253.44
2019-06-01T10:07:34.849Z,99255.67
2019-06-01T10:10:06.465Z,99247.45
2019-06-01T10:12:38.214Z,99248.95
2019-06-01T10:15:09.298Z,99241.00
2019-06-01T10:17:40.300Z,99239.80
2019-06-01T10:20:11.558Z,99246.87
2019-06-01T10:22:42.451Z,99247.16
2019-06-01T10:25:13.166Z,99244.16
2019-06-01T10:27:43.935Z,99242.97
2019-06-01T10:30:15.180Z,99248.54
2019-06-01T10:32:46.136Z,99248.09
2019-06-01T10:35:17.161Z,99241.43
2019-06-01T10:37:48.007Z,99244.81
2019-06-01T10:40:18.716Z,99234.36
2019-06-01T10:42:49.689Z,99234.90
2019-06-01T10:45:20.512Z,99235.08
2019-06-01T10:47:51.440Z,99230.07
2019-06-01T10:50:22.492Z,99229.31
2019-06-01T10:52:53.428Z,99230.59
2019-06-01T10:55:24.140Z,99228.09
2019-06-01T10:57:54.951Z,99219.61
2019-06-01T11:00:37.577Z,99218.15
2019-06-01T11:02:58.260Z,99222.20
2019-06-01T11:05:29.157Z,99229.11
2019-06-01T11:07:59.931Z,99219.89
2019-06-01T11:10:30.736Z,99230.98
2019-06-01T11:13:01.530Z,99223.45
2019-06-01T11:15:32.921Z,99221.34
2019-06-01T11:18:03.851Z,99217.52
2019-06-01T11:20:35.212Z,99223.48
2019-06-01T11:23:06.012Z,99212.61
2019-06-01T11:25:37.569Z,99213.53
2019-06-01T11:28:08.371Z,99203.45
2019-06-01T11:30:39.955Z,99199.50
2019-06-01T11:33:10.866Z,99203.20
2019-06-01T11:35:41.618Z,99202.30
2019-06-01T11:38:12.506Z,99197.39
2019-06-01T11:40:43.233Z,99200.68
2019-06-01T11:43:14.110Z,99193.08
2019-06-01T11:45:46.243Z,99201.63
2019-06-01T11:48:17.223Z,99194.50
2019-06-01T11:50:47.973Z,99189.05
2019-06-01T11:53:18.760Z,99183.45
2019-06-01T11:55:49.723Z,99184.83
2019-06-01T11:58:20.496Z,99183.88
2019-06-01T12:00:51.249Z,99170.04
2019-06-01T12:03:21.942Z,99180.22
2019-06-01T12:05:52.697Z,99167.59
2019-06-01T12:08:23.449Z,99158.84
2019-06-01T12:10:54.219Z,99157.05
2019-06-01T12:13:24.968Z,99154.04
2019-06-01T12:15:55.762Z,99156.33
2019-06-01T12:18:26.590Z,99150.30
2019-06-01T12:20:57.474Z,99150.49
2019-06-01T12:23:28.170Z,99146.31
2019-06-01T12:25:59.095Z,99147.71
2019-06-01T12:28:29.821Z,99141.13
2019-06-01T12:31:00.637Z,99134.14
2019-06-01T12:33:31.465Z,99138.77
2019-06-01T12:36:02.203Z,99136.88
2019-06-01T12:38:49.454Z,99138.77
2019-06-01T12:41:22.834Z,99130.95
2019-06-01T12:44:11.304Z,99139.75
2019-06-01T12:46:43.704Z,99138.63
2019-06-01T12:49:14.730Z,99134.31
2019-06-01T12:51:46.898Z,99136.12
2019-06-01T12:54:17.923Z,99136.16
2019-06-01T12:56:49.777Z,99132.61
2019-06-01T12:59:20.576Z,99131.31
2019-06-01T13:01:51.662Z,99128.74
2019-06-01T13:04:22.728Z,99126.23
2019-06-01T13:06:54.162Z,99124.11
2019-06-01T13:09:24.982Z,99124.02
2019-06-01T13:11:55.917Z,99117.86
2019-06-01T13:14:26.638Z,99115.70
2019-06-01T13:17:06.655Z,99104.33
2019-06-01T13:19:30.168Z,99111.35
2019-06-01T13:22:00.914Z,99097.45
2019-06-01T13:24:31.630Z,99103.50
2019-06-01T13:27:02.469Z,99098.48
2019-06-01T13:29:33.335Z,99088.31
2019-06-01T13:32:04.247Z,99087.91
2019-06-01T13:34:35.015Z,99085.38
2019-06-01T13:37:06.237Z,99082.05
2019-06-01T13:39:37.185Z,99085.17
2019-06-01T13:42:08.139Z,99077.08
2019-06-01T13:44:38.854Z,99074.55
2019-06-01T13:47:09.729Z,99065.98
2019-06-01T13:49:40.585Z,99068.00
2019-06-01T13:52:11.338Z,99061.05
2019-06-01T13:54:42.228Z,99057.77
2019-06-01T13:57:13.001Z,99061.40
2019-06-01T13:59:44.568Z,99055.01
2019-06-01T14:02:15.708Z,99055.17
2019-06-01T14:04:47.563Z,99055.08
2019-06-01T14:07:18.407Z,99046.97
2019-06-01T14:09:51.984Z,99049.11
2019-06-01T14:12:22.442Z,99040.37
2019-06-01T14:14:53.645Z,99043.95
2019-06-01T14:17:24.845Z,99033.69
2019-06-01T14:19:55.978Z,99031.67
2019-06-01T14:22:27.083Z,99031.67
2019-06-01T14:25:11.493Z,99026.17
2019-06-01T14:27:30.623Z,99025.91
2019-06-01T14:30:01.520Z,99014.80
2019-06-01T14:32:32.235Z,99020.58
2019-06-01T14:35:03.012Z,99019.14
2019-06-01T14:37:33.827Z,99013.33
2019-06-01T14:40:05.394Z,99012.36
2019-06-01T14:42:36.439Z,99013.97
2019-06-01T14:45:07.671Z,99014.88
2019-06-01T14:47:38.561Z,99011.55
2019-06-01T14:50:09.910Z,99002.91
2019-06-01T14:52:40.631Z,99001.05
2019-06-01T14:55:11.643Z,99008.05
2019-06-01T14:57:42.751Z,99006.41
2019-06-01T15:00:15.527Z,99005.83
2019-06-01T15:02:46.404Z,98999.47
2019-06-01T15:05:17.124Z,98994.13
2019-06-01T15:07:48.189Z,98994.04
2019-06-01T15:10:19.212Z,98989.81
2019-06-01T15:12:54.598Z,98996.89
2019-06-01T15:15:22.929Z,98996.32
2019-06-01T15:17:53.892Z,99000.72
2019-06-01T15:20:24.718Z,98998.98
2019-06-01T15:22:56.337Z,98993.10
2019-06-01T15:25:27.427Z,98981.84
2019-06-01T15:27:59.573Z,98984.89
2019-06-01T15:30:30.704Z,98978.97
2019-06-01T15:33:03.228Z,98980.60
2019-06-01T15:35:34.256Z,98986.63
2019-06-01T15:38:05.235Z,98982.89
2019-06-01T15:40:35.984Z,98977.14
2019-06-01T15:43:06.760Z,98979.92
2019-06-01T15:45:41.105Z,98981.41
2019-06-01T15:48:10.217Z,98978.41
2019-06-01T15:50:41.020Z,98971.37
2019-06-01T15:53:11.721Z,98960.40
2019-06-01T15:55:42.468Z,98959.63
2019-06-01T15:58:14.702Z,98964.56
2019-06-01T16:00:45.652Z,98959.31
2019-06-01T16:03:16.378Z,98952.61
2019-06-01T16:05:47.146Z,98958.23
2019-06-01T16:08:18.261Z,98956.68
2019-06-01T16:10:49.030Z,98951.61
2019-06-01T16:13:19.740Z,98953.39
2019-06-01T16:15:50.457Z,98953.03
2019-06-01T16:18:21.190Z,98953.98
2019-06-01T16:20:52.236Z,98949.59
2019-06-01T16:23:23.264Z,98949.41
2019-06-01T16:26:07.264Z,98951.17
2019-06-01T16:28:26.645Z,98950.08
2019-06-01T16:30:58.538Z,98945.46
2019-06-01T16:33:29.316Z,98944.02
2019-06-01T16:36:01.009Z,98935.98
2019-06-01T16:38:31.877Z,98945.72
2019-06-01T16:41:03.408Z,98936.97
2019-06-01T16:43:34.208Z,98933.94
2019-06-01T16:46:05.961Z,98937.23
2019-06-01T16:48:37.011Z,98934.31
2019-06-01T16:51:07.763Z,98925.28
2019-06-01T16:53:38.507Z,98926.00
2019-06-01T16:56:09.583Z,98927.50
2019-06-01T16:58:40.368Z,98927.69
2019-06-01T17:01:11.116Z,98921.40
2019-06-01T17:03:42.097Z,98920.13
2019-06-01T17:06:12.884Z,98916.92
2019-06-01T17:08:43.596Z,98923.08
2019-06-01T17:11:14.600Z,98912.49
2019-06-01T17:13:45.324Z,98917.56
2019-06-01T17:16:16.085Z,98916.25
2019-06-01T17:18:48.012Z,98927.05
2019-06-01T17:21:18.800Z,98920.64
2019-06-01T17:23:49.543Z,98916.52
2019-06-01T17:26:20.329Z,98913.99
2019-06-01T17:28:51.150Z,98913.90
2019-06-01T17:31:21.905Z,98917.98
2019-06-01T17:33:52.835Z,98916.50
2019-06-01T17:36:23.740Z,98912.22
2019-06-01T17:38:54.648Z,98912.00
2019-06-01T17:41:25.678Z,98908.46
2019-06-01T17:43:56.414Z,98912.39
2019-06-01T17:46:27.187Z,98908.02
2019-06-01T17:49:00.019Z,98909.98
2019-06-01T17:51:31.967Z,98911.55
2019-06-01T17:54:05.010Z,98913.46
2019-06-01T17:56:35.242Z,98910.22
2019-06-01T17:59:07.449Z,98911.09
2019-06-01T18:01:42.128Z,98906.78
2019-06-01T18:04:12.110Z,98907.52
2019-06-01T18:06:43.152Z,98908.99
2019-06-01T18:09:13.938Z,98902.42
2019-06-01T18:11:44.867Z,98903.58
2019-06-01T18:14:16.085Z,98900.19
2019-06-01T18:16:47.039Z,98895.38
2019-06-01T18:19:17.763Z,98901.20
2019-06-01T18:21:48.565Z,98900.96
2019-06-01T18:24:19.338Z,98901.73
2019-06-01T18:26:50.072Z,98905.13
2019-06-01T18:29:20.934Z,98897.66
2019-06-01T18:31:51.683Z,98902.44
2019-06-01T18:34:22.423Z,98903.02
2019-06-01T18:36:53.633Z,98898.73
2019-06-01T18:39:24.698Z,98895.64
2019-06-01T18:41:55.718Z,98903.31
2019-06-01T18:44:26.584Z,98900.48
2019-06-01T18:46:57.663Z,98895.11
2019-06-01T18:49:28.623Z,98893.18
2019-06-01T18:51:59.644Z,98894.92
2019-06-01T18:54:30.369Z,98897.52
2019-06-01T18:57:12.007Z,98897.61
2019-06-01T19:02:31.076Z,98902.91
2019-06-01T19:05:07.013Z,98896.36
2019-06-01T19:07:37.878Z,98889.36
2019-06-01T19:10:12.532Z,98892.09
2019-06-01T19:12:42.998Z,98896.98
2019-06-01T19:15:27.810Z,98893.77
2019-06-01T19:17:47.725Z,98898.97
2019-06-01T19:20:18.888Z,98900.23
2019-06-01T19:23:02.177Z,98899.13
2019-06-01T19:25:32.927Z,98900.23
2019-06-01T19:28:03.772Z,98906.20
2019-06-01T19:30:37.089Z,98907.03
2019-06-01T19:33:11.103Z,98910.78
2019-06-01T19:35:41.947Z,98918.40
2019-06-01T19:38:13.398Z,98914.52
2019-06-01T19:40:44.503Z,98910.90
2019-06-01T19:43:15.805Z,98912.90
2019-06-01T19:45:46.774Z,98918.55
2019-06-01T19:48:18.876Z,98918.21
2019-06-01T19:50:50.366Z,98921.39
2019-06-01T19:53:21.438Z,98917.38
2019-06-01T19:55:52.177Z,98921.42
2019-06-01T19:58:22.930Z,98922.10
2019-06-01T20:00:53.964Z,98934.53
2019-06-01T20:03:25.014Z,98939.14
2019-06-01T20:05:55.762Z,98931.70
2019-06-01T20:08:26.597Z,98937.79
2019-06-01T20:10:57.540Z,98940.40
2019-06-01T20:13:28.681Z,98933.42
2019-06-01T20:15:59.747Z,98924.97
2019-06-01T20:18:30.505Z,98938.63
2019-06-01T20:21:01.465Z,98938.63
2019-06-01T20:23:32.581Z,98943.91
2019-06-01T20:26:03.850Z,98930.76
2019-06-01T20:28:34.747Z,98930.76
2019-06-01T20:31:05.982Z,98935.80
2019-06-01T20:33:37.270Z,98934.59
2019-06-01T20:36:08.166Z,98934.59
2019-06-01T20:38:38.990Z,98931.64
2019-06-01T20:41:09.742Z,98935.83
2019-06-01T20:43:41.037Z,98939.58
2019-06-01T20:46:12.842Z,98944.41
2019-06-01T20:48:44.110Z,98929.77
2019-06-01T20:51:14.873Z,98929.77
2019-06-01T20:53:45.914Z,98929.61
2019-06-01T20:56:17.362Z,98937.46
2019-06-01T20:58:48.234Z,98937.46
2019-06-01T21:01:20.069Z,98940.92
2019-06-01T21:03:51.207Z,98941.52
2019-06-01T21:06:22.492Z,98945.09
2019-06-01T21:08:53.428Z,98945.09
2019-06-01T21:11:24.503Z,98944.72
2019-06-01T21:13:55.214Z,98951.23
2019-06-01T21:16:26.241Z,98951.23
2019-06-01T21:18:57.304Z,98947.23
2019-06-01T21:21:27.976Z,98952.39
2019-06-01T21:23:58.781Z,98938.41
2019-06-01T21:26:29.559Z,98941.98
2019-06-01T21:29:00.345Z,98945.06
2019-06-01T21:31:31.159Z,98945.06
2019-06-01T21:34:02.137Z,98953.56
2019-06-01T21:36:32.849Z,98953.56
2019-06-01T21:39:05.160Z,98949.64
2019-06-01T21:41:37.058Z,98947.13
2019-06-01T21:44:07.861Z,98954.66
2019-06-01T21:46:38.602Z,98950.53
2019-06-01T21:49:09.359Z,98950.53
2019-06-01T21:51:40.083Z,98935.45
2019-06-01T21:54:10.834Z,98940.41
2019-06-01T21:56:41.767Z,98940.41
2019-06-01T22:02:37.838Z,98937.20
2019-06-01T22:05:09.089Z,98934.77
2019-06-01T22:07:39.787Z,98937.95
2019-06-01T22:10:10.596Z,98942.02
2019-06-01T22:12:41.468Z,98938.80
2019-06-01T22:15:12.186Z,98945.22
2019-06-01T22:17:43.054Z,98945.22
2019-06-01T22:20:13.835Z,98940.66
2019-06-01T22:22:44.681Z,98940.66
2019-06-01T22:25:15.370Z,98936.98
2019-06-01T22:27:46.159Z,98939.45
2019-06-01T22:30:18.367Z,98934.32
2019-06-01T22:32:49.182Z,98933.03
2019-06-01T22:35:20.848Z,98934.05
2019-06-01T22:37:51.644Z,98929.81
2019-06-01T22:40:22.821Z,98930.59
2019-06-01T22:42:53.704Z,98925.70
2019-06-01T22:45:24.725Z,98922.95
2019-06-01T22:47:55.479Z,98925.48
2019-06-01T22:50:27.055Z,98926.26
2019-06-01T22:52:57.898Z,98919.64
2019-06-01T22:55:28.648Z,98916.67
2019-06-01T22:57:59.607Z,98917.64
2019-06-01T23:00:30.368Z,98925.55
2019-06-01T23:03:01.094Z,98925.00
2019-06-01T23:05:32.253Z,98925.00
2019-06-01T23:08:03.026Z,98924.80
2019-06-01T23:10:35.285Z,98924.80
2019-06-01T23:13:06.361Z,98926.96
2019-06-01T23:15:37.255Z,98917.71
2019-06-01T23:18:08.132Z,98914.88
2019-06-01T23:20:39.001Z,98915.80
2019-06-01T23:23:09.739Z,98920.17
2019-06-01T23:25:40.602Z,98924.39
2019-06-01T23:28:11.370Z,98927.33
2019-06-01T23:30:42.116Z,98916.86
2019-06-01T23:33:12.859Z,98916.03
2019-06-01T23:35:43.554Z,98914.53
2019-06-01T23:38:14.591Z,98908.01
2019-06-01T23:40:45.954Z,98907.38
2019-06-01T23:43:17.133Z,98902.61
2019-06-01T23:45:48.255Z,98902.88
2019-06-01T23:48:19.299Z,98906.36
2019-06-01T23:50:50.172Z,98901.56
2019-06-01T23:53:20.857Z,98897.52
2019-06-01T23:55:51.685Z,98902.97
2019-06-01T23:58:22.387Z,98901.19
